Saipan, MP

11:52 PM ChST on August 30, 2014 (GMT +1000)
Saipan International | Change Station
CLOSE
Current Station
Airport
Location: Saipan,
Elevation: 213 ft
Nearby Weather Stations

Elev 213 ft 15.12 °N, 145.73 °E | Updated 58 minutes ago

Clear
Clear
81 °F
Feels Like 89 °F
N
6
Wind Variable Wind from East

Today
High -- | Low -- °F
--% Chance of Precip.
Yesterday
High -- | Low -- °F
Precip. -- in
6:04 AM 6:31 PM
Waxing Crescent, 22% visible
Pressure 29.86 in
Visibility 10.0 miles
Clouds Clear
Heat Index 89 °F
Dew Point 78 °F
Humidity 91%
Rainfall 0.61 in
Snow Depth Not available.
UV 0 out of 12
Pollen Not available.
Air Quality Not available.
Flu Activity Not available.
METAR PGSN 301254Z 09005KT 10SM CLR 27/26 A2979 RMK AO2 SLP110 T02720256

More Conditions Fewer Conditions

Pressure 29.86 in
Visibility 10.0 miles
Clouds Clear
Heat Index 89 °F
Dew Point 78 °F
Humidity 91%
Rainfall 0.61 in
Snow Depth Not available.
UV 0 out of 12
Pollen Not available.
Air Quality Not available.
Flu Activity Not available.
METAR PGSN 301254Z 09005KT 10SM CLR 27/26 A2979 RMK AO2 SLP110 T02720256

More Conditions Fewer Conditions

10-Day Weather Forecast

Almanac

Astronomy

Aug. 30, 2014 Rise Set
Actual Time 6:04 AM ChST 6:31 PM ChST
Civil Twilight 5:42 AM ChST 6:52 PM ChST
Nautical Twilight 5:17 AM ChST 7:18 PM ChST
Astronomical Twilight 4:51 AM ChST 7:43 PM ChST
Moon 9:29 AM ChST 9:28 PM ChST
Length of Visible Light 13h 10m
Length of Day
12h 26m
Tomorrow will be 0m 49s shorter.
Waxing Crescent, 22% of the Moon is Illuminated
Today
Waxing Crescent
Sep 2
First Quarter
Sep 8
Full
Sep 15
Last Quarter
Sep 24
New

Community

WunderPhotos

Upload Photos

1,748,510 photos uploaded!

WunderBlogs® & News

By Dr. Jeff Masters
Director of Meteorology, Weather Underground
By Kari Strenfel
Meteorologist, Weather Underground
By Christopher C. Burt
Weather Historian, Weather Underground
August 30, 2014
August 30, 2014
August 30, 2014

Nearby

Snow Depth

Station Depth Elevation
No new snow has been reported.

Earthquake Activity

City Distance Mag. Time & Date
No recent earthquake activity has been reported nearby.
Minimum magnitude displayed is 2.5.

Coastal Water Temperatures

Place Temperature
No Stations Reporting

Nearby Weather Stations